Time;durP1;ratioP1;P1;durP2;ratioP2;P2;SDS_P1;SDS_P2;PMS_P1;PMS_P2;Temp;Humidity;BMP_temperature;BMP_pressure;BME280_temperature;BME280_humidity;BME280_pressure;Samples;Min_cycle;Max_cycle;Signal;HPM_P1;HPM_P2
2022/02/14 00:02:17;;;;;;;10.35;3.83;;;;;;;;;;4897001;29;20048;-76
2022/02/14 00:04:42;;;;;;;12.43;3.97;;;;;;;;;;4882725;29;20036;-76
2022/02/14 00:07:09;;;;;;;13.65;6.65;;;;;;;;;;4878064;29;20421;-76
2022/02/14 00:09:35;;;;;;;14.30;7.20;;;;;;;;;;4888539;29;20840;-76
2022/02/14 00:12:01;;;;;;;19.20;9.13;;;;;;;;;;4881943;29;20198;-76
2022/02/14 00:14:27;;;;;;;19.17;8.07;;;;;;;;;;4878658;29;20091;-76
2022/02/14 00:16:54;;;;;;;18.38;7.43;;;;;;;;;;4881920;29;20043;-76
2022/02/14 00:19:21;;;;;;;17.67;7.22;;;;;;;;;;4881458;29;20036;-76
2022/02/14 00:21:47;;;;;;;30.02;13.82;;;;;;;;;;4878368;29;20043;-76
2022/02/14 00:24:13;;;;;;;49.17;23.13;;;;;;;;;;4885311;29;20487;-75
2022/02/14 00:26:39;;;;;;;25.25;12.45;;;;;;;;;;4886965;29;20359;-76
2022/02/14 00:29:05;;;;;;;26.80;11.38;;;;;;;;;;4885047;29;20046;-76
2022/02/14 00:31:32;;;;;;;21.65;9.95;;;;;;;;;;4879219;29;20044;-76
2022/02/14 00:33:58;;;;;;;19.92;9.50;;;;;;;;;;4895684;29;20046;-76
2022/02/14 00:36:24;;;;;;;14.27;4.70;;;;;;;;;;4879294;29;20468;-76
2022/02/14 00:38:51;;;;;;;11.25;3.90;;;;;;;;;;4877436;29;20480;-76
2022/02/14 00:41:17;;;;;;;10.68;3.28;;;;;;;;;;4877320;29;20041;-76
2022/02/14 00:43:43;;;;;;;11.05;4.75;;;;;;;;;;4876548;29;20076;-76
2022/02/14 00:46:09;;;;;;;9.70;3.60;;;;;;;;;;4877189;29;20040;-76
2022/02/14 00:48:35;;;;;;;8.82;3.13;;;;;;;;;;4888194;29;20514;-76
2022/02/14 00:51:01;;;;;;;7.65;1.75;;;;;;;;;;4895399;29;20064;-76
2022/02/14 00:53:27;;;;;;;6.78;1.98;;;;;;;;;;4890699;29;20037;-76
2022/02/14 00:55:53;;;;;;;7.85;2.05;;;;;;;;;;4877503;29;20041;-77
2022/02/14 00:58:19;;;;;;;7.85;2.47;;;;;;;;;;4880402;29;20747;-76
2022/02/14 01:00:45;;;;;;;8.52;2.95;;;;;;;;;;4891371;29;20116;-76
2022/02/14 01:03:11;;;;;;;10.48;3.65;;;;;;;;;;4876490;29;20124;-76
2022/02/14 01:05:37;;;;;;;11.38;3.53;;;;;;;;;;4888137;29;20100;-76
2022/02/14 01:08:05;;;;;;;7.72;2.70;;;;;;;;;;4890716;29;20052;-76
2022/02/14 01:10:31;;;;;;;7.03;2.28;;;;;;;;;;4877413;29;20077;-76
2022/02/14 01:12:57;;;;;;;6.57;2.35;;;;;;;;;;4877352;29;20039;-76
2022/02/14 01:15:23;;;;;;;7.15;2.40;;;;;;;;;;4876887;29;20033;-76
2022/02/14 01:17:49;;;;;;;6.43;2.45;;;;;;;;;;4892071;29;20056;-76
2022/02/14 01:20:15;;;;;;;12.40;2.67;;;;;;;;;;4895384;29;20032;-76
2022/02/14 01:22:41;;;;;;;7.38;3.20;;;;;;;;;;4895287;29;20068;-77
2022/02/14 01:25:08;;;;;;;9.73;3.83;;;;;;;;;;4878703;29;20045;-76
2022/02/14 01:27:34;;;;;;;9.02;3.63;;;;;;;;;;4870576;29;20542;-76
2022/02/14 01:30:00;;;;;;;10.40;3.83;;;;;;;;;;4879112;29;20079;-76
2022/02/14 01:32:26;;;;;;;9.13;3.42;;;;;;;;;;4885359;29;20759;-76
2022/02/14 01:34:53;;;;;;;12.55;3.30;;;;;;;;;;4886820;29;20032;-76
2022/02/14 01:37:20;;;;;;;11.77;3.60;;;;;;;;;;4875970;29;20069;-77
2022/02/14 01:39:46;;;;;;;12.80;3.15;;;;;;;;;;4876151;29;20132;-77
2022/02/14 01:42:12;;;;;;;10.10;3.63;;;;;;;;;;4876267;29;20033;-76
2022/02/14 01:44:38;;;;;;;7.85;1.92;;;;;;;;;;4876483;29;20041;-77
2022/02/14 01:47:06;;;;;;;9.05;3.63;;;;;;;;;;4877462;29;20085;-77
2022/02/14 01:49:32;;;;;;;16.00;7.55;;;;;;;;;;4895219;29;20119;-76
2022/02/14 01:51:59;;;;;;;25.63;15.10;;;;;;;;;;4895076;29;20132;-76
2022/02/14 01:54:25;;;;;;;43.08;24.40;;;;;;;;;;4894367;29;20047;-76
2022/02/14 01:56:51;;;;;;;27.75;15.70;;;;;;;;;;4880401;29;20116;-76
2022/02/14 01:59:17;;;;;;;13.48;6.80;;;;;;;;;;4890945;29;20040;-76
2022/02/14 02:01:43;;;;;;;16.85;9.25;;;;;;;;;;4894694;29;20040;-76
2022/02/14 02:04:11;;;;;;;11.27;5.35;;;;;;;;;;4893636;29;20051;-76
2022/02/14 02:06:37;;;;;;;8.60;3.38;;;;;;;;;;4877469;29;20037;-76
2022/02/14 02:09:03;;;;;;;11.07;2.88;;;;;;;;;;4886782;29;20534;-76
2022/02/14 02:14:19;;;;;;;13.00;4.35;;;;;;;;;;4877356;29;20085;-76
2022/02/14 02:16:45;;;;;;;7.22;2.20;;;;;;;;;;4877747;29;20049;-76
2022/02/14 02:19:11;;;;;;;9.95;2.80;;;;;;;;;;4876754;29;20045;-76
2022/02/14 02:21:37;;;;;;;11.18;2.40;;;;;;;;;;4876514;29;20455;-76
2022/02/14 02:24:04;;;;;;;9.68;3.30;;;;;;;;;;4881288;29;20088;-76
2022/02/14 02:26:31;;;;;;;11.13;3.53;;;;;;;;;;4894256;29;20088;-76
2022/02/14 02:28:57;;;;;;;13.95;5.60;;;;;;;;;;4879247;29;20482;-76
2022/02/14 02:31:23;;;;;;;13.20;4.70;;;;;;;;;;4889497;29;20104;-76
2022/02/14 02:33:49;;;;;;;7.57;3.15;;;;;;;;;;4877957;29;20047;-76
2022/02/14 02:36:15;;;;;;;11.05;3.22;;;;;;;;;;4885188;29;20044;-76
2022/02/14 02:38:41;;;;;;;8.70;2.70;;;;;;;;;;4882350;29;20401;-77
2022/02/14 02:41:07;;;;;;;8.50;1.35;;;;;;;;;;4885934;29;20033;-76
2022/02/14 02:43:34;;;;;;;5.38;1.80;;;;;;;;;;4875882;29;20048;-76
2022/02/14 02:46:00;;;;;;;5.68;1.63;;;;;;;;;;4888161;29;20084;-76
2022/02/14 02:48:26;;;;;;;7.13;2.08;;;;;;;;;;4894179;29;20044;-76
2022/02/14 02:51:02;;;;;;;6.43;1.90;;;;;;;;;;4891364;29;20037;-77
2022/02/14 02:53:28;;;;;;;5.65;1.50;;;;;;;;;;4882729;29;20041;-76
2022/02/14 02:55:54;;;;;;;5.03;1.20;;;;;;;;;;4881229;29;20040;-76
2022/02/14 02:58:21;;;;;;;4.95;1.00;;;;;;;;;;4878603;29;20045;-76
2022/02/14 03:00:48;;;;;;;2.95;0.90;;;;;;;;;;4877798;29;20053;-76
2022/02/14 03:03:14;;;;;;;8.05;1.52;;;;;;;;;;4893418;29;20128;-76
2022/02/14 03:05:40;;;;;;;3.00;1.00;;;;;;;;;;4882910;29;20115;-76
2022/02/14 03:08:06;;;;;;;5.15;1.35;;;;;;;;;;4878022;29;20041;-76
2022/02/14 03:10:32;;;;;;;3.17;1.17;;;;;;;;;;4891595;29;20051;-76
2022/02/14 03:12:58;;;;;;;4.47;1.30;;;;;;;;;;4893705;29;20072;-77
2022/02/14 03:15:24;;;;;;;3.92;1.00;;;;;;;;;;4897870;29;20028;-76
2022/02/14 03:17:50;;;;;;;3.97;1.08;;;;;;;;;;4890700;29;20816;-77
2022/02/14 03:20:17;;;;;;;4.13;0.90;;;;;;;;;;4887233;29;20125;-76
2022/02/14 03:22:43;;;;;;;3.17;1.05;;;;;;;;;;4879630;29;20491;-76
2022/02/14 03:25:09;;;;;;;5.55;1.42;;;;;;;;;;4896114;29;20043;-76
2022/02/14 03:27:35;;;;;;;3.50;1.20;;;;;;;;;;4889937;29;20033;-76
2022/02/14 03:30:01;;;;;;;5.85;1.10;;;;;;;;;;4885681;29;20036;-76
2022/02/14 03:32:27;;;;;;;6.40;1.40;;;;;;;;;;4891821;29;20031;-76
2022/02/14 03:34:53;;;;;;;6.90;1.20;;;;;;;;;;4897764;29;20808;-76
2022/02/14 03:37:19;;;;;;;3.17;1.10;;;;;;;;;;4884153;29;20068;-76
2022/02/14 03:39:45;;;;;;;6.68;1.60;;;;;;;;;;4884613;29;20116;-76
2022/02/14 03:42:11;;;;;;;3.90;1.30;;;;;;;;;;4887885;29;20115;-76
2022/02/14 03:44:37;;;;;;;8.43;2.72;;;;;;;;;;4894305;29;20511;-76
2022/02/14 03:47:04;;;;;;;4.63;1.40;;;;;;;;;;4879418;29;20044;-76
2022/02/14 03:49:30;;;;;;;4.88;1.10;;;;;;;;;;4889912;29;20036;-76
2022/02/14 03:51:56;;;;;;;8.02;1.38;;;;;;;;;;4891569;29;20041;-76
2022/02/14 03:54:22;;;;;;;7.68;1.48;;;;;;;;;;4878828;29;20055;-76
2022/02/14 03:56:48;;;;;;;7.43;1.98;;;;;;;;;;4878512;29;20768;-77
2022/02/14 03:59:14;;;;;;;8.27;2.90;;;;;;;;;;4895703;29;20043;-76
2022/02/14 04:01:40;;;;;;;8.57;2.63;;;;;;;;;;4879055;29;20083;-76
2022/02/14 04:04:07;;;;;;;8.15;2.08;;;;;;;;;;4878124;29;20045;-76
2022/02/14 04:06:33;;;;;;;6.55;1.70;;;;;;;;;;4884032;29;20037;-76
2022/02/14 04:08:59;;;;;;;6.63;1.40;;;;;;;;;;4890475;29;20033;-76
2022/02/14 04:11:25;;;;;;;7.50;1.20;;;;;;;;;;4897213;29;20032;-76
2022/02/14 04:13:51;;;;;;;3.97;1.23;;;;;;;;;;4879107;29;20061;-77
2022/02/14 04:16:17;;;;;;;3.53;1.20;;;;;;;;;;4892745;29;20360;-76
2022/02/14 04:18:43;;;;;;;6.20;1.38;;;;;;;;;;4887086;29;20435;-76
2022/02/14 04:21:09;;;;;;;7.18;1.88;;;;;;;;;;4880042;29;20702;-76
2022/02/14 04:23:36;;;;;;;7.97;1.70;;;;;;;;;;4879130;29;20518;-76
2022/02/14 04:26:02;;;;;;;6.57;1.83;;;;;;;;;;4877890;29;20047;-76
2022/02/14 04:28:28;;;;;;;5.68;2.05;;;;;;;;;;4878190;29;20032;-76
2022/02/14 04:30:54;;;;;;;7.30;2.45;;;;;;;;;;4878244;29;20065;-76
2022/02/14 04:33:20;;;;;;;8.95;2.22;;;;;;;;;;4861255;29;20570;-76
2022/02/14 04:35:47;;;;;;;6.47;1.60;;;;;;;;;;4861248;29;20502;-76
2022/02/14 04:38:13;;;;;;;6.80;1.73;;;;;;;;;;4877730;29;20121;-76
2022/02/14 04:40:39;;;;;;;3.78;1.30;;;;;;;;;;4877604;29;20563;-76
2022/02/14 04:43:06;;;;;;;6.95;1.80;;;;;;;;;;4877354;29;20227;-76
2022/02/14 04:45:32;;;;;;;6.03;1.80;;;;;;;;;;4886115;29;20037;-76
2022/02/14 04:47:58;;;;;;;9.52;2.10;;;;;;;;;;4879957;29;20082;-76
2022/02/14 04:50:25;;;;;;;7.50;1.95;;;;;;;;;;4877135;29;20036;-76
2022/02/14 04:52:51;;;;;;;31.50;16.17;;;;;;;;;;4885985;29;20036;-76
2022/02/14 04:55:17;;;;;;;14.70;4.72;;;;;;;;;;4878826;29;20037;-76
2022/02/14 04:57:43;;;;;;;9.23;2.60;;;;;;;;;;4879206;29;20402;-76
2022/02/14 05:00:11;;;;;;;7.93;1.60;;;;;;;;;;4889282;29;20053;-76
2022/02/14 05:02:37;;;;;;;5.15;1.40;;;;;;;;;;4876783;29;20072;-77
2022/02/14 05:05:03;;;;;;;3.90;1.30;;;;;;;;;;4877097;29;20068;-76
2022/02/14 05:07:29;;;;;;;4.85;1.13;;;;;;;;;;4876672;29;20089;-77
2022/02/14 05:09:55;;;;;;;4.47;1.30;;;;;;;;;;4877408;29;20045;-76
2022/02/14 05:12:21;;;;;;;5.15;1.95;;;;;;;;;;4879820;29;20040;-76
2022/02/14 05:14:47;;;;;;;5.53;1.38;;;;;;;;;;4885996;29;20033;-77
2022/02/14 05:17:15;;;;;;;11.70;2.17;;;;;;;;;;4876601;29;20060;-76
2022/02/14 05:19:41;;;;;;;4.35;1.13;;;;;;;;;;4877624;29;20041;-76
2022/02/14 05:22:07;;;;;;;5.70;1.23;;;;;;;;;;4894877;29;20039;-76
2022/02/14 05:24:33;;;;;;;5.07;1.63;;;;;;;;;;4881501;29;20033;-76
2022/02/14 05:26:59;;;;;;;3.85;1.40;;;;;;;;;;4877158;29;20039;-75
2022/02/14 05:29:26;;;;;;;6.18;1.05;;;;;;;;;;4887147;29;20120;-76
2022/02/14 05:31:52;;;;;;;5.50;1.40;;;;;;;;;;4886309;29;20033;-76
2022/02/14 05:34:18;;;;;;;5.72;1.20;;;;;;;;;;4876569;29;20108;-76
2022/02/14 05:36:44;;;;;;;5.30;1.73;;;;;;;;;;4895158;29;20131;-76
2022/02/14 05:39:10;;;;;;;5.00;2.08;;;;;;;;;;4893857;29;20048;-77
2022/02/14 05:41:36;;;;;;;10.00;2.78;;;;;;;;;;4895619;29;20502;-77
2022/02/14 05:44:04;;;;;;;13.85;2.63;;;;;;;;;;4893042;29;20029;-76
2022/02/14 05:46:30;;;;;;;10.73;2.53;;;;;;;;;;4876704;29;20387;-77
2022/02/14 05:48:57;;;;;;;6.68;2.53;;;;;;;;;;4890311;29;20036;-76
2022/02/14 05:51:23;;;;;;;6.70;2.17;;;;;;;;;;4890791;29;20791;-76
2022/02/14 05:53:49;;;;;;;11.05;2.75;;;;;;;;;;4879425;29;20028;-76
2022/02/14 05:56:15;;;;;;;25.95;9.68;;;;;;;;;;4876510;29;20047;-76
2022/02/14 05:58:44;;;;;;;21.33;8.95;;;;;;;;;;4876684;29;20036;-76
2022/02/14 06:01:10;;;;;;;24.08;8.18;;;;;;;;;;4885994;29;20353;-76
2022/02/14 06:03:36;;;;;;;16.95;6.60;;;;;;;;;;4876237;29;20052;-76
2022/02/14 06:06:03;;;;;;;36.38;16.20;;;;;;;;;;4875796;29;20044;-76
2022/02/14 06:08:29;;;;;;;14.68;7.07;;;;;;;;;;4875971;29;20089;-76
2022/02/14 06:10:55;;;;;;;32.53;13.02;;;;;;;;;;4886476;29;20036;-76
2022/02/14 06:13:21;;;;;;;17.52;5.82;;;;;;;;;;4875598;29;20068;-76
2022/02/14 06:15:47;;;;;;;18.40;4.68;;;;;;;;;;4877837;29;20041;-76
2022/02/14 06:18:14;;;;;;;23.70;7.82;;;;;;;;;;4876450;29;20062;-77
2022/02/14 06:20:40;;;;;;;17.25;4.47;;;;;;;;;;4879745;29;20434;-77
2022/02/14 06:23:07;;;;;;;15.55;4.40;;;;;;;;;;4875428;29;20372;-76
2022/02/14 06:25:33;;;;;;;35.80;12.25;;;;;;;;;;4880036;29;20036;-76
2022/02/14 06:27:59;;;;;;;39.15;15.00;;;;;;;;;;4878144;29;20043;-76
2022/02/14 06:30:25;;;;;;;21.50;6.97;;;;;;;;;;4879043;29;20029;-76
2022/02/14 06:32:51;;;;;;;6.75;2.60;;;;;;;;;;4892324;29;20033;-76
2022/02/14 06:35:17;;;;;;;24.80;9.05;;;;;;;;;;4884574;29;20051;-76
2022/02/14 06:37:43;;;;;;;21.33;7.10;;;;;;;;;;4877967;29;20072;-76
2022/02/14 06:40:10;;;;;;;22.63;7.75;;;;;;;;;;4882843;29;20395;-76
2022/02/14 06:42:36;;;;;;;51.42;21.85;;;;;;;;;;4879759;29;20756;-76
2022/02/14 06:45:03;;;;;;;40.22;16.30;;;;;;;;;;4891513;29;20557;-76
2022/02/14 06:47:29;;;;;;;23.75;8.38;;;;;;;;;;4880770;29;20072;-76
2022/02/14 06:49:55;;;;;;;21.73;5.50;;;;;;;;;;4887433;29;20040;-76
2022/02/14 06:52:21;;;;;;;16.38;4.20;;;;;;;;;;4881178;29;20503;-76
2022/02/14 06:54:47;;;;;;;20.58;5.22;;;;;;;;;;4878022;29;20045;-76
2022/02/14 06:57:13;;;;;;;65.07;43.83;;;;;;;;;;4879548;29;20033;-76
2022/02/14 06:59:39;;;;;;;17.67;8.40;;;;;;;;;;4883262;29;20108;-77
2022/02/14 07:02:05;;;;;;;19.95;9.00;;;;;;;;;;4876139;29;20037;-76
2022/02/14 07:04:31;;;;;;;20.60;7.53;;;;;;;;;;4889438;29;20037;-76
2022/02/14 07:06:58;;;;;;;16.75;5.93;;;;;;;;;;4885183;29;20033;-76
2022/02/14 07:09:24;;;;;;;15.90;3.97;;;;;;;;;;4893764;29;20045;-77
2022/02/14 07:11:50;;;;;;;18.27;3.83;;;;;;;;;;4876913;29;20033;-77
2022/02/14 07:14:19;;;;;;;9.73;3.13;;;;;;;;;;4875544;29;20737;-76
2022/02/14 07:16:45;;;;;;;12.55;3.28;;;;;;;;;;4883415;29;20032;-77
2022/02/14 07:19:11;;;;;;;41.60;22.35;;;;;;;;;;4874683;29;20081;-77
2022/02/14 07:21:37;;;;;;;23.65;14.20;;;;;;;;;;4883808;29;20158;-76
2022/02/14 07:24:03;;;;;;;17.40;7.00;;;;;;;;;;4876780;29;20049;-76
2022/02/14 07:26:29;;;;;;;11.30;4.20;;;;;;;;;;4877642;29;20591;-76
2022/02/14 07:28:56;;;;;;;13.25;5.65;;;;;;;;;;4883995;29;20041;-77
2022/02/14 07:31:22;;;;;;;13.95;4.50;;;;;;;;;;4877939;29;20033;-76
2022/02/14 07:33:48;;;;;;;25.40;15.85;;;;;;;;;;4882123;29;20119;-76
2022/02/14 07:36:14;;;;;;;15.10;4.10;;;;;;;;;;4880370;29;20029;-76
2022/02/14 07:38:40;;;;;;;15.60;3.90;;;;;;;;;;4882077;29;20041;-76
2022/02/14 07:41:07;;;;;;;56.10;17.52;;;;;;;;;;4883794;29;20064;-76
2022/02/14 07:43:33;;;;;;;44.95;13.32;;;;;;;;;;4880027;29;20431;-76
2022/02/14 07:45:59;;;;;;;31.45;12.20;;;;;;;;;;4881194;29;20033;-76
2022/02/14 07:48:25;;;;;;;33.60;12.57;;;;;;;;;;4877170;29;20101;-75
2022/02/14 07:50:51;;;;;;;37.60;12.25;;;;;;;;;;4878645;29;20127;-76
2022/02/14 07:53:18;;;;;;;29.92;11.50;;;;;;;;;;4884648;29;20244;-76
2022/02/14 07:55:44;;;;;;;24.10;7.80;;;;;;;;;;4886937;29;20356;-74
2022/02/14 07:58:10;;;;;;;22.90;8.98;;;;;;;;;;4883198;29;20041;-75
2022/02/14 08:00:36;;;;;;;60.85;22.83;;;;;;;;;;4883779;29;20041;-75
2022/02/14 08:03:05;;;;;;;39.97;16.55;;;;;;;;;;4887514;29;20999;-76
2022/02/14 08:05:34;;;;;;;35.40;12.45;;;;;;;;;;4879771;29;20036;-77
2022/02/14 08:08:00;;;;;;;21.35;8.00;;;;;;;;;;4882480;29;20040;-77
2022/02/14 08:10:26;;;;;;;16.75;6.10;;;;;;;;;;4882418;29;20036;-79
2022/02/14 08:12:52;;;;;;;26.77;10.88;;;;;;;;;;4883722;29;20086;-75
2022/02/14 08:15:18;;;;;;;24.58;9.77;;;;;;;;;;4879521;29;20037;-75
2022/02/14 08:17:44;;;;;;;31.40;13.95;;;;;;;;;;4882559;29;20052;-74
2022/02/14 08:20:10;;;;;;;20.45;7.93;;;;;;;;;;4889535;29;20047;-75
2022/02/14 08:22:37;;;;;;;27.58;13.20;;;;;;;;;;4877389;29;20035;-74
2022/02/14 08:25:03;;;;;;;25.23;11.23;;;;;;;;;;4880434;29;20493;-75
2022/02/14 08:27:29;;;;;;;18.55;8.23;;;;;;;;;;4887774;29;20076;-74
2022/02/14 08:29:57;;;;;;;28.65;13.70;;;;;;;;;;4880299;29;20052;-75
2022/02/14 08:32:23;;;;;;;25.13;11.43;;;;;;;;;;4883189;29;20028;-76
2022/02/14 08:34:49;;;;;;;14.35;5.93;;;;;;;;;;4882443;29;20111;-75
2022/02/14 08:37:15;;;;;;;15.20;5.20;;;;;;;;;;4882746;29;20463;-75
2022/02/14 08:39:41;;;;;;;11.52;4.50;;;;;;;;;;4879476;29;20037;-75
2022/02/14 08:42:07;;;;;;;14.57;5.82;;;;;;;;;;4890702;29;20076;-74
2022/02/14 08:44:34;;;;;;;20.27;7.75;;;;;;;;;;4884269;29;20037;-75
2022/02/14 08:47:00;;;;;;;19.40;5.57;;;;;;;;;;4878076;29;20044;-75
2022/02/14 08:49:27;;;;;;;16.65;6.70;;;;;;;;;;4877487;29;20041;-75
2022/02/14 08:51:56;;;;;;;8.88;3.72;;;;;;;;;;4880546;29;20180;-75
2022/02/14 08:54:22;;;;;;;10.00;3.70;;;;;;;;;;4876345;29;20395;-75
2022/02/14 08:56:48;;;;;;;14.82;3.63;;;;;;;;;;4883438;29;20810;-75
2022/02/14 08:59:19;;;;;;;11.50;3.20;;;;;;;;;;4876996;29;20154;-75
2022/02/14 09:01:45;;;;;;;12.65;3.00;;;;;;;;;;4877766;29;20037;-75
2022/02/14 09:04:11;;;;;;;16.80;3.08;;;;;;;;;;4876651;29;20037;-75
2022/02/14 09:06:37;;;;;;;12.70;3.88;;;;;;;;;;4876526;29;20037;-75
2022/02/14 09:09:04;;;;;;;11.00;3.70;;;;;;;;;;4877658;29;20036;-75
2022/02/14 09:11:30;;;;;;;11.98;3.80;;;;;;;;;;4877149;29;20033;-75
2022/02/14 09:13:56;;;;;;;10.35;2.85;;;;;;;;;;4877392;29;20078;-75
2022/02/14 09:16:22;;;;;;;12.63;3.10;;;;;;;;;;4876893;29;20388;-76
2022/02/14 09:18:48;;;;;;;12.02;4.07;;;;;;;;;;4884939;29;20036;-74
2022/02/14 09:21:15;;;;;;;19.05;3.85;;;;;;;;;;4888235;29;20647;-75
2022/02/14 09:23:41;;;;;;;14.40;4.10;;;;;;;;;;4881071;29;20048;-75
2022/02/14 09:26:08;;;;;;;14.10;5.47;;;;;;;;;;4883709;29;20036;-75
2022/02/14 09:28:35;;;;;;;11.98;3.90;;;;;;;;;;4876995;29;20036;-75
2022/02/14 09:31:01;;;;;;;15.65;4.93;;;;;;;;;;4881376;29;20033;-75
2022/02/14 09:33:27;;;;;;;11.15;5.30;;;;;;;;;;4878473;29;20111;-75
2022/02/14 09:35:53;;;;;;;16.42;5.15;;;;;;;;;;4876802;29;20119;-75
2022/02/14 09:38:20;;;;;;;14.52;3.58;;;;;;;;;;4876165;29;20128;-75
2022/02/14 09:40:46;;;;;;;10.20;2.70;;;;;;;;;;4876604;29;20658;-75
2022/02/14 09:43:13;;;;;;;17.52;5.10;;;;;;;;;;4876405;29;20048;-75
2022/02/14 09:45:40;;;;;;;22.30;7.30;;;;;;;;;;4876377;29;20092;-75
2022/02/14 09:48:08;;;;;;;20.83;6.95;;;;;;;;;;4876249;29;20590;-74
2022/02/14 09:50:35;;;;;;;17.73;6.18;;;;;;;;;;4876086;29;20088;-74
2022/02/14 09:53:03;;;;;;;21.02;6.93;;;;;;;;;;4876200;29;20092;-74
2022/02/14 09:55:29;;;;;;;22.67;6.80;;;;;;;;;;4868963;29;20032;-75
2022/02/14 09:57:55;;;;;;;21.77;6.97;;;;;;;;;;4882336;29;20077;-75
2022/02/14 10:00:21;;;;;;;18.60;5.80;;;;;;;;;;4882278;29;20490;-75
2022/02/14 10:03:07;;;;;;;20.58;5.05;;;;;;;;;;4879965;29;20119;-75
2022/02/14 10:05:41;;;;;;;15.70;4.07;;;;;;;;;;4878041;29;20073;-75
2022/02/14 10:08:07;;;;;;;13.00;4.35;;;;;;;;;;4877048;29;20104;-74
2022/02/14 10:10:33;;;;;;;10.90;3.30;;;;;;;;;;4889062;29;20606;-75
2022/02/14 10:12:59;;;;;;;11.20;3.65;;;;;;;;;;4880668;29;20044;-74
2022/02/14 10:15:25;;;;;;;13.73;4.47;;;;;;;;;;4885794;29;20452;-74
2022/02/14 10:17:53;;;;;;;8.90;3.20;;;;;;;;;;4886904;29;20036;-75
2022/02/14 10:20:20;;;;;;;11.18;3.20;;;;;;;;;;4885431;29;20050;-74
2022/02/14 10:22:51;;;;;;;15.93;3.38;;;;;;;;;;4877745;29;20077;-74
2022/02/14 10:25:29;;;;;;;12.07;3.58;;;;;;;;;;4885552;29;20041;-75
2022/02/14 10:28:12;;;;;;;9.90;2.70;;;;;;;;;;4883795;29;20467;-75
2022/02/14 10:30:53;;;;;;;9.93;2.78;;;;;;;;;;4880646;29;20064;-75
2022/02/14 10:33:19;;;;;;;20.15;6.43;;;;;;;;;;4881633;29;20036;-75
2022/02/14 10:35:46;;;;;;;9.50;2.05;;;;;;;;;;4879985;29;20803;-75
2022/02/14 10:38:12;;;;;;;12.15;2.50;;;;;;;;;;4880902;29;20160;-75
2022/02/14 10:40:40;;;;;;;11.57;3.15;;;;;;;;;;4884798;29;20746;-74
2022/02/14 10:43:07;;;;;;;10.93;2.65;;;;;;;;;;4882278;29;20693;-75
2022/02/14 10:45:34;;;;;;;9.90;2.00;;;;;;;;;;4880557;29;20060;-75
2022/02/14 10:48:10;;;;;;;8.50;3.00;;;;;;;;;;4884054;29;20040;-75
2022/02/14 10:50:36;;;;;;;7.05;1.98;;;;;;;;;;4883689;29;20107;-74
2022/02/14 10:53:03;;;;;;;4.72;1.50;;;;;;;;;;4882629;29;20069;-75
2022/02/14 10:55:34;;;;;;;5.45;1.75;;;;;;;;;;4881616;29;20073;-75
2022/02/14 10:58:01;;;;;;;8.93;2.03;;;;;;;;;;4884438;29;20074;-74
2022/02/14 11:00:28;;;;;;;10.88;2.40;;;;;;;;;;4879647;29;20068;-74
2022/02/14 11:02:58;;;;;;;12.45;3.22;;;;;;;;;;4883658;29;20467;-75
2022/02/14 11:05:25;;;;;;;14.93;4.32;;;;;;;;;;4878001;29;20037;-75
2022/02/14 11:07:51;;;;;;;11.93;3.75;;;;;;;;;;4888922;29;20116;-75
2022/02/14 11:10:18;;;;;;;12.05;3.08;;;;;;;;;;4882145;29;20036;-75
2022/02/14 11:12:47;;;;;;;7.95;2.65;;;;;;;;;;4880061;29;20029;-74
2022/02/14 11:15:14;;;;;;;12.20;2.28;;;;;;;;;;4879956;29;20036;-74
2022/02/14 11:17:48;;;;;;;9.75;2.33;;;;;;;;;;4885280;29;20036;-74
2022/02/14 11:20:14;;;;;;;15.15;2.35;;;;;;;;;;4885233;29;20047;-74
2022/02/14 11:22:48;;;;;;;16.00;2.70;;;;;;;;;;4875551;29;20044;-74
2022/02/14 11:25:23;;;;;;;11.43;3.42;;;;;;;;;;4875889;29;20033;-75
2022/02/14 11:28:08;;;;;;;9.15;2.75;;;;;;;;;;4894304;29;20577;-74
2022/02/14 11:30:34;;;;;;;9.07;2.40;;;;;;;;;;4881606;29;20064;-74
2022/02/14 11:33:13;;;;;;;14.30;2.45;;;;;;;;;;4878488;29;20545;-74
2022/02/14 11:35:39;;;;;;;12.55;2.72;;;;;;;;;;4883563;29;20036;-75
2022/02/14 11:38:06;;;;;;;11.15;2.63;;;;;;;;;;4888937;29;20168;-74
2022/02/14 11:40:35;;;;;;;11.25;3.70;;;;;;;;;;4882842;29;20032;-74
2022/02/14 11:43:05;;;;;;;11.15;2.53;;;;;;;;;;4880044;29;20139;-74
2022/02/14 11:45:32;;;;;;;18.23;3.58;;;;;;;;;;4883689;29;20033;-72
2022/02/14 11:48:18;;;;;;;10.27;3.08;;;;;;;;;;4877210;29;20041;-73
2022/02/14 11:50:44;;;;;;;12.25;3.30;;;;;;;;;;4883309;29;20029;-73
2022/02/14 11:53:28;;;;;;;15.07;4.68;;;;;;;;;;4879318;29;20037;-73
2022/02/14 11:55:54;;;;;;;21.58;4.57;;;;;;;;;;4890042;29;20036;-73
2022/02/14 11:58:46;;;;;;;24.73;3.95;;;;;;;;;;4883485;29;20497;-73
2022/02/14 12:01:20;;;;;;;16.10;4.05;;;;;;;;;;4879455;29;20040;-73
2022/02/14 12:03:50;;;;;;;16.63;4.10;;;;;;;;;;4885898;29;20045;-73
2022/02/14 12:06:16;;;;;;;14.48;4.10;;;;;;;;;;4891717;29;20328;-73
2022/02/14 12:08:58;;;;;;;11.18;3.58;;;;;;;;;;4896821;29;20060;-73
2022/02/14 12:11:43;;;;;;;11.00;2.35;;;;;;;;;;4892710;29;20626;-74
2022/02/14 12:14:16;;;;;;;9.88;1.95;;;;;;;;;;4879355;29;20080;-73
2022/02/14 12:22:42;;;;;;;6.30;2.55;;;;;;;;;;4880236;29;20108;-74
2022/02/14 12:25:09;;;;;;;11.45;1.80;;;;;;;;;;4882678;29;20037;-73
2022/02/14 12:27:36;;;;;;;8.25;1.70;;;;;;;;;;4884211;29;20378;-73
2022/02/14 12:30:20;;;;;;;8.85;2.75;;;;;;;;;;4881979;29;20033;-73
2022/02/14 12:33:06;;;;;;;5.28;2.20;;;;;;;;;;4884695;29;20048;-73
2022/02/14 12:35:33;;;;;;;6.65;2.08;;;;;;;;;;4885758;29;20041;-73
2022/02/14 12:37:59;;;;;;;7.55;3.00;;;;;;;;;;4879167;29;20445;-74
2022/02/14 12:40:25;;;;;;;8.25;2.65;;;;;;;;;;4876267;29;20124;-73
2022/02/14 12:43:00;;;;;;;6.78;2.30;;;;;;;;;;4876177;29;20047;-73
2022/02/14 12:45:26;;;;;;;6.63;2.22;;;;;;;;;;4879593;29;20050;-73
2022/02/14 12:47:52;;;;;;;6.82;2.65;;;;;;;;;;4882873;29;20416;-73
2022/02/14 12:50:18;;;;;;;6.13;2.33;;;;;;;;;;4875886;29;20040;-74
2022/02/14 12:52:49;;;;;;;6.97;2.28;;;;;;;;;;4885246;29;20036;-73
2022/02/14 12:55:16;;;;;;;9.15;2.00;;;;;;;;;;4884076;29;20033;-73
2022/02/14 12:57:45;;;;;;;7.20;2.35;;;;;;;;;;4880295;29;20740;-73
2022/02/14 13:00:31;;;;;;;5.60;1.42;;;;;;;;;;4880994;29;20041;-74
2022/02/14 13:03:02;;;;;;;5.40;2.00;;;;;;;;;;4883167;29;20070;-73
2022/02/14 13:05:29;;;;;;;5.05;1.50;;;;;;;;;;4881467;29;20424;-73
2022/02/14 13:07:55;;;;;;;6.03;1.33;;;;;;;;;;4881639;29;20037;-73
2022/02/14 13:10:23;;;;;;;6.32;2.08;;;;;;;;;;4881888;29;20064;-73
2022/02/14 13:12:56;;;;;;;7.38;2.33;;;;;;;;;;4864263;29;20033;-72
2022/02/14 13:15:22;;;;;;;6.35;1.30;;;;;;;;;;4880242;29;20041;-73
2022/02/14 13:17:49;;;;;;;3.83;1.05;;;;;;;;;;4883096;29;20510;-73
2022/02/14 13:20:15;;;;;;;4.40;0.90;;;;;;;;;;4882869;29;20041;-74
2022/02/14 13:22:41;;;;;;;7.07;1.02;;;;;;;;;;4879200;29;20033;-74
2022/02/14 13:25:19;;;;;;;5.72;1.30;;;;;;;;;;4877327;29;20037;-74
2022/02/14 13:27:45;;;;;;;5.38;1.10;;;;;;;;;;4882932;29;20033;-74
2022/02/14 13:30:12;;;;;;;4.38;0.75;;;;;;;;;;4875628;29;20037;-74
2022/02/14 13:32:40;;;;;;;2.33;0.57;;;;;;;;;;4886488;29;20035;-73
2022/02/14 13:35:06;;;;;;;2.80;0.68;;;;;;;;;;4883792;29;20699;-74
2022/02/14 13:37:44;;;;;;;4.43;0.88;;;;;;;;;;4843479;29;1226098;-73
2022/02/14 13:40:25;;;;;;;3.13;0.70;;;;;;;;;;4882194;29;20036;-73
2022/02/14 13:42:52;;;;;;;3.45;0.70;;;;;;;;;;4878081;29;20036;-74
2022/02/14 13:45:19;;;;;;;3.83;0.77;;;;;;;;;;4883088;29;20033;-74
2022/02/14 13:47:46;;;;;;;5.20;1.17;;;;;;;;;;4880585;29;20115;-74
2022/02/14 13:50:26;;;;;;;3.50;0.75;;;;;;;;;;4884569;29;20395;-74
2022/02/14 13:52:52;;;;;;;3.67;0.60;;;;;;;;;;4881442;29;20089;-74
2022/02/14 13:55:21;;;;;;;2.13;0.60;;;;;;;;;;4883642;29;20131;-74
2022/02/14 13:57:48;;;;;;;1.52;0.40;;;;;;;;;;4882538;29;20427;-74
2022/02/14 14:00:34;;;;;;;4.05;0.60;;;;;;;;;;4884286;29;20037;-75
2022/02/14 14:03:00;;;;;;;2.75;0.63;;;;;;;;;;4884817;29;20040;-74
2022/02/14 14:05:27;;;;;;;2.45;0.40;;;;;;;;;;4880183;29;20040;-74
2022/02/14 14:07:53;;;;;;;9.52;3.80;;;;;;;;;;4888810;29;20047;-74
2022/02/14 14:10:19;;;;;;;4.18;1.40;;;;;;;;;;4883365;29;20691;-74
2022/02/14 14:12:46;;;;;;;10.20;6.38;;;;;;;;;;4884155;29;20032;-74
2022/02/14 14:15:13;;;;;;;11.75;6.05;;;;;;;;;;4881788;29;20033;-74
2022/02/14 14:17:39;;;;;;;7.10;2.45;;;;;;;;;;4881071;29;20048;-74
2022/02/14 14:20:05;;;;;;;15.40;5.40;;;;;;;;;;4881238;29;20713;-74
2022/02/14 14:22:34;;;;;;;9.40;4.03;;;;;;;;;;4880757;29;20592;-74
2022/02/14 14:25:00;;;;;;;8.80;4.88;;;;;;;;;;4880474;29;20059;-74
2022/02/14 14:27:27;;;;;;;4.97;2.00;;;;;;;;;;4885666;29;20689;-74
2022/02/14 14:29:53;;;;;;;5.47;2.10;;;;;;;;;;4878254;29;20044;-74
2022/02/14 14:32:19;;;;;;;5.85;2.08;;;;;;;;;;4881256;29;20060;-74
2022/02/14 14:34:45;;;;;;;5.95;2.50;;;;;;;;;;4882538;29;20044;-75
2022/02/14 14:37:12;;;;;;;16.00;10.80;;;;;;;;;;4881959;29;20059;-74
2022/02/14 14:39:38;;;;;;;17.55;9.65;;;;;;;;;;4880335;29;20037;-74
2022/02/14 14:42:05;;;;;;;9.30;3.60;;;;;;;;;;4880251;29;20136;-74
2022/02/14 14:44:31;;;;;;;8.93;1.60;;;;;;;;;;4883206;29;20048;-73
2022/02/14 14:46:57;;;;;;;5.18;1.02;;;;;;;;;;4880289;29;20037;-74